Grays River, Washington
Current Conditions -  °F | °C
As of 9:55 PM on Saturday 22 Nov 2014 (Local Time) from KAST Reporting Station
Few Clouds Few Clouds  
Wind Chill: 39°   Ceiling: Unl
Heat Index: 43°   Visibility: 8mi
Dew Point: 41°   Wind: 6mph
Humidity: 93%   Direction: 130°SE
Pressure: 30.16"   Gusts: NA
Location:  46.36°N, 123.61°W
Report Text: KAST 230555Z AUTO 13005KT 8SM FEW028 06/05 A3016 RMK AO2 SLP212 60000 T00610050 10117 20061 53019
Loading
Personal Weather Stations






























Interactive Weather Map New forecast layout! Learn more

10-Day Weather Forecast

Advertisements
Track Severe Weather on mobile